Main page
METAR-TAF:

METAR-TAF

Airports :

Debrecen International Airport

Debrecen, Hungary

latitude: 47-29N, longitude: 021-36E, elevation: 108 m

Current weather observation

The report was made 40 minutes ago, at 19:15 UTC
Wind 6 kt from the South/Southwest
Temperature 21°C
Humidity 64%
Pressure 1012 hPa
Visibility: 9000 m

METAR: LHDC 161915Z AUTO 20006KT 9000 NCD 21/14 Q1012

Time: 21:55 (19:55 UTC)

Forecast

The report was made 5 hours and 40 minutes ago, at 14:15 UTC
Forecast valid from 16 at 15 UTC to 16 at 24 UTC
Wind 12 kt from the South
Visibility 10 km or more
no clouds below 1500 m and no cumulonimbus
Probability 30% :
Temporary
from 16 at 15 UTC to 16 at 21 UTC
Visibility: 5000 m
Scattered clouds at a height of 4000 ft, Cumulonimbus.
rain showers, thunderstorm, rain
Probability 40%
from 16 at 18 UTC to 16 at 24 UTC
Wind 3 kt from variable directions

TAF: LHDC 161415Z 1615/1624 17012KT CAVOK PROB30 TEMPO 1615/1621 5000 SHRA TSRA SCT040CB PROB40 1618/1624 VRB03KT

Weather observations and forecasts of more than 4000 airports (METAR and TAF reports).

The available stations are represented by yellow and red dots on the map.

Hover mouse over dot to see the name of the station.

Then click to see weather observations and forecasts.

To change the map : click on the green buttons with a black cross to zoom in, on the green button with a dash to zoom out, or on the green arrows for adjacent maps.


METAR-TAF: